createdAt,value
2022-10-08T00:01:53.424Z,5.95
2022-10-08T00:04:59.558Z,5.62
2022-10-08T00:08:05.726Z,5.01
2022-10-08T00:11:16.666Z,4.87
2022-10-08T00:14:23.550Z,5.15
2022-10-08T00:17:29.919Z,5.34
2022-10-08T00:20:36.012Z,4.86
2022-10-08T00:23:42.419Z,5.08
2022-10-08T00:26:49.639Z,5.69
2022-10-08T00:29:55.635Z,5.69
2022-10-08T00:33:02.596Z,5.36
2022-10-08T00:36:10.391Z,5.34
2022-10-08T00:39:17.855Z,5.60
2022-10-08T00:42:26.222Z,5.37
2022-10-08T00:45:32.639Z,5.18
2022-10-08T00:48:38.747Z,4.90
2022-10-08T00:51:49.901Z,4.40
2022-10-08T00:54:55.942Z,4.84
2022-10-08T00:58:09.303Z,4.40
2022-10-08T01:01:15.751Z,4.28
2022-10-08T01:04:22.231Z,4.56
2022-10-08T01:07:33.580Z,4.79
2022-10-08T01:10:48.548Z,5.14
2022-10-08T01:14:02.483Z,5.21
2022-10-08T01:17:17.139Z,4.31
2022-10-08T01:20:37.337Z,4.56
2022-10-08T01:24:22.278Z,4.27
2022-10-08T01:27:34.399Z,4.27
2022-10-08T01:30:46.531Z,4.52
2022-10-08T01:33:58.292Z,4.08
2022-10-08T01:37:06.819Z,3.85
2022-10-08T01:40:19.279Z,4.09
2022-10-08T01:43:30.359Z,4.06
2022-10-08T01:46:41.156Z,4.06
2022-10-08T01:49:52.561Z,3.75
2022-10-08T01:53:03.207Z,3.74
2022-10-08T01:56:12.117Z,4.27
2022-10-08T01:59:24.184Z,3.95
2022-10-08T02:02:30.752Z,3.82
2022-10-08T02:05:40.658Z,3.97
2022-10-08T02:08:47.040Z,4.25
2022-10-08T02:11:53.587Z,4.72
2022-10-08T02:15:02.369Z,5.03
2022-10-08T02:18:13.856Z,4.56
2022-10-08T02:21:25.144Z,4.47
2022-10-08T02:24:38.175Z,4.34
2022-10-08T02:27:55.411Z,3.82
2022-10-08T02:31:10.323Z,3.96
2022-10-08T02:34:21.354Z,4.07
2022-10-08T02:37:32.910Z,4.26
2022-10-08T02:40:42.919Z,4.39
2022-10-08T02:43:52.213Z,4.13
2022-10-08T02:47:02.923Z,3.84
2022-10-08T02:50:13.461Z,3.35
2022-10-08T02:53:20.647Z,3.15
2022-10-08T02:56:32.526Z,3.50
2022-10-08T02:59:39.307Z,3.42
2022-10-08T03:02:53.641Z,3.21
2022-10-08T03:06:03.454Z,3.10
2022-10-08T03:09:12.232Z,3.01
2022-10-08T03:12:18.698Z,3.15
2022-10-08T03:15:25.515Z,3.38
2022-10-08T03:18:33.824Z,3.42
2022-10-08T03:21:42.690Z,3.85
2022-10-08T03:24:48.780Z,3.77
2022-10-08T03:27:55.156Z,3.94
2022-10-08T03:31:06.156Z,3.70
2022-10-08T03:34:13.884Z,3.43
2022-10-08T03:37:20.400Z,3.97
2022-10-08T03:40:26.454Z,4.02
2022-10-08T03:43:34.035Z,4.45
2022-10-08T03:46:40.674Z,4.27
2022-10-08T03:49:48.081Z,4.58
2022-10-08T03:52:54.100Z,4.47
2022-10-08T03:56:03.120Z,4.35
2022-10-08T03:59:09.585Z,4.22
2022-10-08T04:02:16.334Z,3.72
2022-10-08T04:05:24.263Z,3.41
2022-10-08T04:08:30.563Z,3.40
2022-10-08T04:11:36.881Z,3.79
2022-10-08T04:14:43.183Z,3.78
2022-10-08T04:17:49.205Z,3.16
2022-10-08T04:20:59.887Z,3.48
2022-10-08T04:24:06.316Z,3.22
2022-10-08T04:27:12.338Z,2.98
2022-10-08T04:30:18.936Z,2.85
2022-10-08T04:33:24.929Z,3.54
2022-10-08T04:36:33.562Z,3.14
2022-10-08T04:39:39.691Z,3.65
2022-10-08T04:42:46.009Z,3.58
2022-10-08T04:45:52.302Z,3.69
2022-10-08T04:48:58.510Z,3.86
2022-10-08T04:52:05.931Z,3.79
2022-10-08T04:55:12.090Z,3.07
2022-10-08T04:58:18.614Z,3.30
2022-10-08T05:01:26.033Z,3.23
2022-10-08T05:04:32.638Z,3.09
2022-10-08T05:07:40.479Z,4.28
2022-10-08T05:10:50.038Z,4.32
2022-10-08T05:13:57.725Z,4.91
2022-10-08T05:17:04.120Z,4.18
2022-10-08T05:20:10.905Z,4.79
2022-10-08T05:23:18.392Z,4.47
2022-10-08T05:26:46.498Z,4.81
2022-10-08T05:29:52.712Z,4.46
2022-10-08T05:32:58.938Z,4.30
2022-10-08T05:36:06.837Z,4.56
2022-10-08T05:39:14.595Z,5.10
2022-10-08T05:42:20.832Z,5.60
2022-10-08T05:45:27.298Z,6.13
2022-10-08T05:48:33.370Z,6.65
2022-10-08T05:51:39.651Z,6.54
2022-10-08T05:54:47.591Z,7.07
2022-10-08T05:57:53.804Z,7.35
2022-10-08T06:01:01.212Z,7.55
2022-10-08T06:04:09.097Z,7.60
2022-10-08T06:07:15.531Z,7.40
2022-10-08T06:10:23.279Z,7.33
2022-10-08T06:13:29.547Z,8.12
2022-10-08T06:16:36.358Z,8.27
2022-10-08T06:19:42.679Z,8.79
2022-10-08T06:22:49.404Z,8.55
2022-10-08T06:25:57.090Z,9.11
2022-10-08T06:29:03.179Z,9.17
2022-10-08T06:32:09.564Z,9.42
2022-10-08T06:35:15.632Z,9.38
2022-10-08T06:38:22.037Z,9.57
2022-10-08T06:41:33.404Z,9.69
2022-10-08T06:44:39.675Z,9.82
2022-10-08T06:47:45.793Z,10.07
2022-10-08T06:50:59.782Z,10.27
2022-10-08T06:54:08.312Z,10.26
2022-10-08T06:57:16.358Z,10.45
2022-10-08T07:00:22.135Z,10.97
2022-10-08T07:03:28.199Z,10.98
2022-10-08T07:06:34.692Z,11.06
2022-10-08T07:09:41.142Z,11.29
2022-10-08T07:12:48.898Z,11.74
2022-10-08T07:16:02.674Z,11.43
2022-10-08T07:19:09.232Z,12.00
2022-10-08T07:22:15.510Z,11.83
2022-10-08T07:25:21.830Z,12.06
2022-10-08T07:28:32.111Z,11.93
2022-10-08T07:31:39.427Z,12.16
2022-10-08T07:34:45.878Z,12.24
2022-10-08T07:37:52.323Z,12.24
2022-10-08T07:40:58.601Z,13.00
2022-10-08T07:44:07.152Z,12.97
2022-10-08T07:47:13.623Z,13.49
2022-10-08T07:50:19.703Z,13.44
2022-10-08T07:53:25.764Z,13.61
2022-10-08T07:56:33.209Z,13.94
2022-10-08T07:59:40.886Z,14.22
2022-10-08T08:02:49.620Z,13.96
2022-10-08T08:06:02.077Z,13.99
2022-10-08T08:09:08.040Z,14.53
2022-10-08T08:12:14.408Z,14.85
2022-10-08T08:15:22.036Z,14.55
2022-10-08T08:18:30.673Z,14.85
2022-10-08T08:21:39.233Z,15.25
2022-10-08T08:24:45.474Z,15.26
2022-10-08T08:27:51.860Z,15.92
2022-10-08T08:31:08.416Z,16.01
2022-10-08T08:34:16.774Z,15.98
2022-10-08T08:37:22.865Z,16.30
2022-10-08T08:40:29.330Z,16.73
2022-10-08T08:43:35.695Z,16.76
2022-10-08T08:46:47.750Z,16.60
2022-10-08T08:49:56.467Z,16.48
2022-10-08T08:53:03.850Z,17.20
2022-10-08T08:56:14.360Z,16.88
2022-10-08T08:59:29.493Z,16.99
2022-10-08T09:02:45.594Z,17.08
2022-10-08T09:05:56.823Z,17.40
2022-10-08T09:09:09.351Z,18.41
2022-10-08T09:12:21.145Z,18.34
2022-10-08T09:15:34.063Z,18.49
2022-10-08T09:18:49.121Z,18.18
2022-10-08T09:21:55.442Z,18.58
2022-10-08T09:25:05.179Z,18.73
2022-10-08T09:28:11.595Z,18.60
2022-10-08T09:31:26.605Z,18.61
2022-10-08T09:34:35.127Z,18.27
2022-10-08T09:37:41.453Z,19.28
2022-10-08T09:41:01.602Z,18.75
2022-10-08T09:44:19.816Z,19.64
2022-10-08T09:47:28.166Z,20.02
2022-10-08T09:50:38.271Z,19.67
2022-10-08T09:53:47.040Z,19.03
2022-10-08T09:56:56.068Z,19.39
2022-10-08T10:00:05.923Z,19.77
2022-10-08T10:03:18.752Z,19.89
2022-10-08T10:06:33.387Z,20.08
2022-10-08T10:09:45.652Z,19.89
2022-10-08T10:12:56.387Z,20.25
2022-10-08T10:16:06.132Z,20.22
2022-10-08T10:19:18.681Z,20.36
2022-10-08T10:22:33.713Z,20.23
2022-10-08T10:25:48.140Z,20.75
2022-10-08T10:28:58.531Z,20.84
2022-10-08T10:32:14.407Z,20.63
2022-10-08T10:35:25.810Z,20.44
2022-10-08T10:38:42.958Z,20.26
2022-10-08T10:41:56.311Z,21.06
2022-10-08T10:45:05.465Z,20.86
2022-10-08T10:48:14.871Z,21.01
2022-10-08T10:51:36.598Z,21.53
2022-10-08T10:55:01.881Z,21.02
2022-10-08T10:58:23.475Z,21.44
2022-10-08T11:01:41.064Z,21.70
2022-10-08T11:05:01.726Z,21.46
2022-10-08T11:08:18.929Z,21.53
2022-10-08T11:11:36.787Z,21.87
2022-10-08T11:14:54.934Z,22.21
2022-10-08T11:18:21.799Z,22.63
2022-10-08T11:21:40.355Z,21.44
2022-10-08T11:25:07.210Z,21.61
2022-10-08T11:28:24.190Z,22.19
2022-10-08T11:31:40.563Z,22.82
2022-10-08T11:34:53.280Z,22.24
2022-10-08T11:38:08.140Z,22.40
2022-10-08T11:41:21.211Z,21.79
2022-10-08T11:44:30.371Z,22.42
2022-10-08T11:47:47.926Z,23.15
2022-10-08T11:50:54.314Z,22.80
2022-10-08T11:54:14.740Z,22.43
2022-10-08T11:57:24.923Z,22.17
2022-10-08T12:00:40.395Z,21.93
2022-10-08T12:04:02.551Z,23.09
2022-10-08T12:07:21.992Z,22.31
2022-10-08T12:10:34.245Z,22.82
2022-10-08T12:13:40.548Z,21.88
2022-10-08T12:17:12.538Z,22.32
2022-10-08T12:20:21.422Z,22.20
2022-10-08T12:23:40.295Z,22.69
2022-10-08T12:27:19.866Z,22.79
2022-10-08T12:30:49.639Z,22.26
2022-10-08T12:33:59.803Z,22.85
2022-10-08T12:37:16.536Z,22.98
2022-10-08T12:40:36.022Z,22.84
2022-10-08T12:43:49.455Z,22.33
2022-10-08T12:47:06.030Z,23.17
2022-10-08T12:50:38.057Z,22.97
2022-10-08T12:53:46.262Z,22.45
2022-10-08T12:56:53.720Z,22.92
2022-10-08T13:00:01.965Z,22.90
2022-10-08T13:03:15.219Z,22.81
2022-10-08T13:06:33.716Z,23.48
2022-10-08T13:09:40.335Z,23.32
2022-10-08T13:13:00.254Z,23.27
2022-10-08T13:16:08.932Z,23.59
2022-10-08T13:19:19.731Z,23.11
2022-10-08T13:22:28.014Z,23.30
2022-10-08T13:25:41.042Z,23.37
2022-10-08T13:28:59.889Z,23.42
2022-10-08T13:32:19.791Z,23.07
2022-10-08T13:35:26.268Z,22.66
2022-10-08T13:38:37.184Z,22.75
2022-10-08T13:41:52.474Z,22.11
2022-10-08T13:44:59.995Z,22.65
2022-10-08T13:48:11.175Z,23.38
2022-10-08T13:51:17.252Z,21.88
2022-10-08T13:54:26.563Z,23.57
2022-10-08T13:57:32.732Z,22.36
2022-10-08T14:00:40.218Z,22.17
2022-10-08T14:03:46.553Z,22.96
2022-10-08T14:06:56.783Z,23.00
2022-10-08T14:10:04.990Z,23.37
2022-10-08T14:13:13.863Z,23.26
2022-10-08T14:16:20.153Z,23.34
2022-10-08T14:19:26.250Z,21.86
2022-10-08T14:22:38.852Z,22.30
2022-10-08T14:25:47.758Z,21.37
2022-10-08T14:28:53.567Z,21.77
2022-10-08T14:32:00.105Z,21.19
2022-10-08T14:35:07.611Z,21.56
2022-10-08T14:38:13.972Z,21.65
2022-10-08T14:41:21.857Z,21.09
2022-10-08T14:44:27.838Z,22.04
2022-10-08T14:47:34.212Z,21.75
2022-10-08T14:50:40.346Z,22.59
2022-10-08T14:53:46.816Z,23.30
2022-10-08T14:56:54.338Z,22.72
2022-10-08T15:00:00.681Z,20.47
2022-10-08T15:03:06.987Z,19.43
2022-10-08T15:06:13.380Z,18.90
2022-10-08T15:09:19.686Z,18.98
2022-10-08T15:12:27.199Z,18.16
2022-10-08T15:15:32.960Z,17.84
2022-10-08T15:18:39.144Z,18.08
2022-10-08T15:21:45.323Z,17.39
2022-10-08T15:24:51.428Z,17.27
2022-10-08T15:27:59.160Z,16.72
2022-10-08T15:31:08.148Z,16.36
2022-10-08T15:34:17.763Z,16.34
2022-10-08T15:37:23.987Z,16.09
2022-10-08T15:40:31.804Z,16.54
2022-10-08T15:43:39.559Z,16.63
2022-10-08T15:46:45.973Z,16.55
2022-10-08T15:49:51.991Z,16.08
2022-10-08T15:52:58.051Z,15.56
2022-10-08T15:56:05.310Z,15.12
2022-10-08T15:59:12.790Z,15.17
2022-10-08T16:02:18.935Z,15.74
2022-10-08T16:05:25.048Z,15.61
2022-10-08T16:08:32.421Z,15.42
2022-10-08T16:11:39.162Z,14.82
2022-10-08T16:14:46.759Z,14.42
2022-10-08T16:17:52.742Z,14.13
2022-10-08T16:21:02.458Z,13.88
2022-10-08T16:24:08.860Z,13.69
2022-10-08T16:27:15.069Z,13.39
2022-10-08T16:30:22.891Z,13.42
2022-10-08T16:33:29.609Z,13.53
2022-10-08T16:36:37.453Z,13.55
2022-10-08T16:39:43.671Z,13.34
2022-10-08T16:42:49.735Z,13.55
2022-10-08T16:45:57.458Z,13.43
2022-10-08T16:49:05.999Z,13.19
2022-10-08T16:52:12.165Z,13.18
2022-10-08T16:55:18.544Z,12.84
2022-10-08T16:58:24.613Z,12.78
2022-10-08T17:01:33.982Z,12.87
2022-10-08T17:04:40.110Z,12.57
2022-10-08T17:07:46.302Z,12.49
2022-10-08T17:10:52.545Z,12.57
2022-10-08T17:13:59.491Z,12.33
2022-10-08T17:17:07.329Z,12.26
2022-10-08T17:20:13.051Z,12.16
2022-10-08T17:23:19.383Z,12.11
2022-10-08T17:26:27.094Z,12.17
2022-10-08T17:29:33.452Z,11.54
2022-10-08T17:32:41.354Z,11.76
2022-10-08T17:35:47.709Z,11.48
2022-10-08T17:38:56.534Z,11.23
2022-10-08T17:42:06.980Z,11.10
2022-10-08T17:45:13.459Z,11.11
2022-10-08T17:48:21.191Z,11.41
2022-10-08T17:51:29.213Z,11.41
2022-10-08T17:54:35.555Z,11.30
2022-10-08T17:57:41.647Z,11.27
2022-10-08T18:00:48.105Z,11.09
2022-10-08T18:03:58.011Z,11.12
2022-10-08T18:07:04.190Z,11.05
2022-10-08T18:10:11.412Z,10.95
2022-10-08T18:13:17.511Z,10.81
2022-10-08T18:16:25.375Z,10.46
2022-10-08T18:19:33.201Z,10.03
2022-10-08T18:22:39.340Z,10.23
2022-10-08T18:25:46.521Z,10.25
2022-10-08T18:28:56.421Z,10.09
2022-10-08T18:32:02.734Z,10.14
2022-10-08T18:35:11.914Z,10.10
2022-10-08T18:38:18.142Z,10.32
2022-10-08T18:41:26.298Z,10.35
2022-10-08T18:44:32.412Z,10.25
2022-10-08T18:47:38.600Z,10.07
2022-10-08T18:50:46.393Z,10.30
2022-10-08T18:53:53.871Z,10.31
2022-10-08T18:57:00.444Z,10.21
2022-10-08T19:00:07.046Z,10.11
2022-10-08T19:03:13.160Z,9.77
2022-10-08T19:06:23.276Z,9.52
2022-10-08T19:09:29.631Z,9.53
2022-10-08T19:12:35.787Z,9.25
2022-10-08T19:15:42.606Z,9.67
2022-10-08T19:18:54.396Z,9.00
2022-10-08T19:22:02.117Z,9.62
2022-10-08T19:25:08.779Z,9.43
2022-10-08T19:28:14.774Z,9.45
2022-10-08T19:31:24.208Z,9.10
2022-10-08T19:34:30.520Z,9.42
2022-10-08T19:37:38.614Z,9.09
2022-10-08T19:40:44.732Z,8.88
2022-10-08T19:43:50.909Z,8.72
2022-10-08T19:46:57.063Z,8.68
2022-10-08T19:50:03.701Z,8.57
2022-10-08T19:53:11.180Z,8.86
2022-10-08T19:56:18.270Z,8.71
2022-10-08T19:59:24.437Z,8.49
2022-10-08T20:02:30.591Z,7.92
2022-10-08T20:05:36.684Z,7.77
2022-10-08T20:08:44.227Z,8.09
2022-10-08T20:11:50.289Z,8.33
2022-10-08T20:14:56.340Z,8.08
2022-10-08T20:18:02.812Z,7.75
2022-10-08T20:21:11.327Z,7.91
2022-10-08T20:24:19.927Z,8.12
2022-10-08T20:27:26.239Z,8.37
2022-10-08T20:30:32.607Z,8.44
2022-10-08T20:33:40.719Z,8.66
2022-10-08T20:36:47.810Z,8.72
2022-10-08T20:39:55.215Z,8.44
2022-10-08T20:43:01.568Z,8.39
2022-10-08T20:46:10.463Z,8.50
2022-10-08T20:49:16.388Z,8.23
2022-10-08T20:52:22.972Z,7.52
2022-10-08T20:55:30.732Z,7.20
2022-10-08T20:58:37.590Z,7.55
2022-10-08T21:01:43.926Z,7.26
2022-10-08T21:04:49.911Z,7.13
2022-10-08T21:07:56.232Z,7.35
2022-10-08T21:11:04.696Z,7.11
2022-10-08T21:14:11.765Z,7.20
2022-10-08T21:17:17.962Z,7.74
2022-10-08T21:20:23.754Z,7.14
2022-10-08T21:23:29.923Z,7.33
2022-10-08T21:26:39.067Z,7.43
2022-10-08T21:29:45.038Z,7.33
2022-10-08T21:32:51.375Z,7.66
2022-10-08T21:35:58.334Z,7.16
2022-10-08T21:39:06.772Z,7.17
2022-10-08T21:42:14.384Z,7.64
2022-10-08T21:45:20.282Z,6.94
2022-10-08T21:48:27.919Z,7.20
2022-10-08T21:51:34.952Z,7.22
2022-10-08T21:54:41.016Z,7.10
2022-10-08T21:57:48.671Z,6.41
2022-10-08T22:00:55.161Z,6.32
2022-10-08T22:04:02.987Z,6.91
2022-10-08T22:07:08.956Z,6.54
2022-10-08T22:10:15.391Z,6.47
2022-10-08T22:13:23.503Z,6.61
2022-10-08T22:16:29.913Z,6.99
2022-10-08T22:19:36.976Z,6.51
2022-10-08T22:22:43.333Z,6.45
2022-10-08T22:25:54.407Z,6.97
2022-10-08T22:29:02.384Z,6.67
2022-10-08T22:32:08.738Z,6.28
2022-10-08T22:35:15.262Z,6.18
2022-10-08T22:38:21.553Z,6.21
2022-10-08T22:41:29.770Z,6.70
2022-10-08T22:44:37.210Z,6.53
2022-10-08T22:47:43.151Z,6.22
2022-10-08T22:50:49.343Z,5.89
2022-10-08T22:53:56.050Z,6.00
2022-10-08T22:57:02.191Z,6.66
2022-10-08T23:00:11.677Z,6.83
2022-10-08T23:03:17.913Z,6.49
2022-10-08T23:06:25.298Z,6.77
2022-10-08T23:09:31.443Z,6.58
2022-10-08T23:12:37.487Z,6.82
2022-10-08T23:15:45.010Z,6.52
2022-10-08T23:18:55.756Z,6.27
2022-10-08T23:22:01.716Z,5.84
2022-10-08T23:25:08.815Z,5.38
2022-10-08T23:28:14.978Z,5.55
2022-10-08T23:31:24.035Z,5.51
2022-10-08T23:34:30.151Z,5.60
2022-10-08T23:37:36.375Z,5.46
2022-10-08T23:40:42.402Z,5.76
2022-10-08T23:43:51.551Z,5.46
2022-10-08T23:46:59.252Z,5.73
2022-10-08T23:50:05.590Z,6.15
2022-10-08T23:53:11.822Z,5.57
2022-10-08T23:56:18.545Z,5.90
2022-10-08T23:59:24.865Z,5.96
